createdAt,value
2022-12-16T00:01:27.882Z,99355.84
2022-12-16T00:03:55.671Z,99358.44
2022-12-16T00:06:24.508Z,99347.22
2022-12-16T00:08:51.975Z,99345.53
2022-12-16T00:11:20.148Z,99347.13
2022-12-16T00:13:47.407Z,99346.25
2022-12-16T00:16:15.527Z,99336.72
2022-12-16T00:18:42.738Z,99344.50
2022-12-16T00:21:09.528Z,99342.00
2022-12-16T00:23:36.705Z,99330.78
2022-12-16T00:26:03.660Z,99329.06
2022-12-16T00:28:30.437Z,99308.25
2022-12-16T00:30:57.612Z,99300.41
2022-12-16T00:33:28.214Z,99302.00
2022-12-16T00:35:55.333Z,99274.41
2022-12-16T00:38:23.287Z,99278.75
2022-12-16T00:40:50.085Z,99270.03
2022-12-16T00:43:19.901Z,99264.88
2022-12-16T00:45:46.899Z,99259.69
2022-12-16T00:48:14.663Z,99240.59
2022-12-16T00:50:41.407Z,99228.44
2022-12-16T00:53:08.348Z,99219.75
2022-12-16T00:55:35.486Z,99212.81
2022-12-16T00:58:02.180Z,99211.91
2022-12-16T01:00:28.950Z,99211.09
2022-12-16T01:02:55.827Z,99199.75
2022-12-16T01:05:26.956Z,99189.28
2022-12-16T01:07:54.751Z,99191.16
2022-12-16T01:10:22.129Z,99190.25
2022-12-16T01:12:48.832Z,99185.97
2022-12-16T01:15:15.762Z,99186.84
2022-12-16T01:17:42.595Z,99169.50
2022-12-16T01:20:09.616Z,99161.63
2022-12-16T01:22:36.278Z,99161.69
2022-12-16T01:25:03.753Z,99156.50
2022-12-16T01:27:30.612Z,99149.59
2022-12-16T01:29:57.382Z,99132.25
2022-12-16T01:32:24.096Z,99136.47
2022-12-16T01:34:55.349Z,99147.84
2022-12-16T01:37:23.045Z,99126.19
2022-12-16T01:39:49.917Z,99134.84
2022-12-16T01:42:19.392Z,99121.81
2022-12-16T01:44:47.114Z,99112.34
2022-12-16T01:47:15.928Z,99124.41
2022-12-16T01:50:06.330Z,99131.34
2022-12-16T01:52:40.390Z,99108.87
2022-12-16T01:55:09.699Z,99124.47
2022-12-16T01:57:48.592Z,99134.88
2022-12-16T02:00:15.444Z,99153.91
2022-12-16T02:02:46.561Z,99101.91
2022-12-16T02:05:22.824Z,99114.91
2022-12-16T02:08:03.171Z,99127.91
2022-12-16T02:10:45.062Z,99113.12
2022-12-16T02:13:30.396Z,99108.84
2022-12-16T02:15:57.324Z,99086.31
2022-12-16T02:18:45.498Z,99088.03
2022-12-16T02:21:18.049Z,99095.84
2022-12-16T02:24:03.945Z,99107.13
2022-12-16T02:26:49.201Z,99119.25
2022-12-16T02:29:30.229Z,99115.78
2022-12-16T02:31:56.879Z,99125.31
2022-12-16T02:34:29.867Z,99108.84
2022-12-16T02:37:05.974Z,99108.84
2022-12-16T02:39:38.148Z,99112.31
2022-12-16T02:42:13.670Z,99111.31
2022-12-16T02:44:44.082Z,99101.03
2022-12-16T02:47:10.828Z,99088.84
2022-12-16T02:49:48.587Z,99075.75
2022-12-16T02:52:16.159Z,99085.34
2022-12-16T02:54:43.390Z,99079.34
2022-12-16T02:57:13.786Z,99068.75
2022-12-16T02:59:59.443Z,99072.19
2022-12-16T03:02:31.056Z,99065.28
2022-12-16T03:05:10.198Z,99083.44
2022-12-16T03:07:40.096Z,99084.97
2022-12-16T03:10:07.984Z,99087.59
2022-12-16T03:12:35.772Z,99089.97
2022-12-16T03:15:02.902Z,99083.97
2022-12-16T03:17:29.679Z,99075.41
2022-12-16T03:20:08.921Z,99077.78
2022-12-16T03:22:36.835Z,99082.88
2022-12-16T03:25:04.115Z,99099.59
2022-12-16T03:27:43.924Z,99090.00
2022-12-16T03:30:14.169Z,99085.69
2022-12-16T03:32:49.084Z,99086.03
2022-12-16T03:35:44.971Z,99079.56
2022-12-16T03:38:13.033Z,99069.53
2022-12-16T03:40:41.620Z,99062.78
2022-12-16T03:43:09.152Z,99056.31
2022-12-16T03:45:40.228Z,99060.34
2022-12-16T03:48:08.547Z,99043.63
2022-12-16T03:50:35.906Z,99056.34
2022-12-16T03:53:03.069Z,99057.06
2022-12-16T03:55:29.805Z,99054.31
2022-12-16T03:57:57.431Z,99022.66
2022-12-16T04:00:24.755Z,99043.41
2022-12-16T04:02:51.736Z,99036.16
2022-12-16T04:05:20.538Z,99044.22
2022-12-16T04:07:47.285Z,99031.09
2022-12-16T04:10:13.984Z,99032.91
2022-12-16T04:12:59.345Z,99028.41
2022-12-16T04:15:44.624Z,99036.31
2022-12-16T04:18:33.264Z,99053.44
2022-12-16T04:21:18.865Z,99069.91
2022-12-16T04:24:08.741Z,99076.59
2022-12-16T04:26:55.446Z,99078.37
2022-12-16T04:29:22.204Z,99069.44
2022-12-16T04:31:49.264Z,99057.00
2022-12-16T04:34:29.425Z,99068.91
2022-12-16T04:37:23.430Z,99072.38
2022-12-16T04:40:08.430Z,99060.94
2022-12-16T04:42:53.549Z,99074.00
2022-12-16T04:45:38.924Z,99068.06
2022-12-16T04:48:24.383Z,99075.69
2022-12-16T04:51:09.907Z,99066.97
2022-12-16T04:53:54.891Z,99067.16
2022-12-16T04:56:40.089Z,99078.31
2022-12-16T04:59:25.105Z,99080.38
2022-12-16T05:02:10.358Z,99089.53
2022-12-16T05:04:55.505Z,99101.91
2022-12-16T05:07:40.593Z,99090.47
2022-12-16T05:10:26.305Z,99099.06
2022-12-16T05:13:12.324Z,99090.81
2022-12-16T05:15:58.482Z,99104.97
2022-12-16T05:18:44.340Z,99095.66
2022-12-16T05:21:29.389Z,99103.53
2022-12-16T05:24:15.621Z,99095.25
2022-12-16T05:27:00.922Z,99105.78
2022-12-16T05:29:46.045Z,99094.63
2022-12-16T05:32:30.995Z,99084.84
2022-12-16T05:35:16.193Z,99108.16
2022-12-16T05:38:18.088Z,99101.59
2022-12-16T05:41:03.381Z,99084.66
2022-12-16T05:43:48.497Z,99070.63
2022-12-16T05:46:33.733Z,99054.00
2022-12-16T05:49:18.919Z,99075.91
2022-12-16T05:52:04.112Z,99080.94
2022-12-16T05:54:49.249Z,99071.22
2022-12-16T05:57:34.504Z,99078.16
2022-12-16T06:00:19.543Z,99094.63
2022-12-16T06:03:04.846Z,99100.56
2022-12-16T06:05:49.965Z,99092.28
2022-12-16T06:08:35.099Z,99100.56
2022-12-16T06:11:20.304Z,99090.03
2022-12-16T06:14:05.439Z,99089.03
2022-12-16T06:16:50.386Z,99115.22
2022-12-16T06:19:35.585Z,99125.47
2022-12-16T06:22:20.740Z,99128.88
2022-12-16T06:25:05.829Z,99125.06
2022-12-16T06:27:50.920Z,99129.19
2022-12-16T06:30:36.102Z,99123.00
2022-12-16T06:33:21.184Z,99144.88
2022-12-16T06:36:06.341Z,99135.78
2022-12-16T06:38:51.514Z,99131.38
2022-12-16T06:41:36.658Z,99124.59
2022-12-16T06:44:22.196Z,99135.69
2022-12-16T06:47:07.306Z,99123.84
2022-12-16T06:49:52.525Z,99138.84
2022-12-16T06:52:37.699Z,99130.22
2022-12-16T06:55:23.401Z,99127.47
2022-12-16T06:58:14.640Z,99136.25
2022-12-16T07:00:59.830Z,99139.53
2022-12-16T07:03:45.146Z,99144.84
2022-12-16T07:06:30.341Z,99130.75
2022-12-16T07:09:15.569Z,99127.53
2022-12-16T07:12:00.573Z,99134.59
2022-12-16T07:14:48.169Z,99125.16
2022-12-16T07:17:33.706Z,99119.81
2022-12-16T07:20:18.988Z,99123.34
2022-12-16T07:23:12.099Z,99136.56
2022-12-16T07:26:01.718Z,99141.69
2022-12-16T07:28:48.423Z,99156.28
2022-12-16T07:31:33.988Z,99153.63
2022-12-16T07:34:19.582Z,99139.78
2022-12-16T07:37:05.325Z,99131.94
2022-12-16T07:39:54.878Z,99137.81
2022-12-16T07:42:40.651Z,99126.41
2022-12-16T07:45:26.210Z,99147.22
2022-12-16T07:48:11.630Z,99156.75
2022-12-16T07:50:56.742Z,99155.31
2022-12-16T07:53:41.995Z,99152.66
2022-12-16T07:56:28.272Z,99161.94
2022-12-16T07:59:14.515Z,99167.81
2022-12-16T08:02:04.312Z,99155.56
2022-12-16T08:04:50.603Z,99168.66
2022-12-16T08:07:36.636Z,99177.75
2022-12-16T08:10:22.792Z,99165.81
2022-12-16T08:13:08.294Z,99165.97
2022-12-16T08:15:54.381Z,99177.56
2022-12-16T08:18:39.506Z,99187.75
2022-12-16T08:21:24.559Z,99188.97
2022-12-16T08:24:10.197Z,99197.75
2022-12-16T08:27:06.068Z,99183.53
2022-12-16T08:29:54.414Z,99188.03
2022-12-16T08:32:42.840Z,99194.88
2022-12-16T08:35:28.462Z,99195.28
2022-12-16T08:38:15.113Z,99215.13
2022-12-16T08:41:03.261Z,99219.41
2022-12-16T08:43:52.820Z,99227.91
2022-12-16T08:46:38.612Z,99226.06
2022-12-16T08:49:24.853Z,99231.06
2022-12-16T08:52:10.409Z,99235.25
2022-12-16T08:54:57.722Z,99243.25
2022-12-16T08:57:42.909Z,99237.09
2022-12-16T09:00:28.530Z,99246.84
2022-12-16T09:03:14.920Z,99248.25
2022-12-16T09:06:02.617Z,99270.97
2022-12-16T09:08:48.322Z,99272.50
2022-12-16T09:11:34.180Z,99272.47
2022-12-16T09:14:20.357Z,99257.78
2022-12-16T09:17:07.000Z,99276.78
2022-12-16T09:20:09.170Z,99274.09
2022-12-16T09:22:55.586Z,99275.22
2022-12-16T09:25:41.024Z,99270.47
2022-12-16T09:28:26.644Z,99264.72
2022-12-16T09:31:11.934Z,99258.03
2022-12-16T09:33:59.252Z,99274.09
2022-12-16T09:36:46.540Z,99265.09
2022-12-16T09:39:33.777Z,99248.59
2022-12-16T09:42:38.767Z,99258.16
2022-12-16T09:45:43.314Z,99252.00
2022-12-16T09:48:42.076Z,99253.41
2022-12-16T09:51:30.260Z,99264.59
2022-12-16T09:54:16.494Z,99294.28
2022-12-16T09:57:03.803Z,99293.13
2022-12-16T10:00:01.105Z,99300.72
2022-12-16T10:02:50.120Z,99298.88
2022-12-16T10:05:39.545Z,99316.00
2022-12-16T10:08:44.931Z,99318.06
2022-12-16T10:11:36.698Z,99329.31
2022-12-16T10:14:46.830Z,99330.37
2022-12-16T10:17:36.390Z,99329.19
2022-12-16T10:20:46.620Z,99335.28
2022-12-16T10:23:32.323Z,99342.91
2022-12-16T10:26:29.448Z,99347.78
2022-12-16T10:29:23.189Z,99359.09
2022-12-16T10:32:10.277Z,99367.06
2022-12-16T10:34:56.454Z,99368.72
2022-12-16T10:37:52.767Z,99358.53
2022-12-16T10:40:40.488Z,99358.50
2022-12-16T10:43:46.060Z,99365.34
2022-12-16T10:46:37.237Z,99369.66
2022-12-16T10:49:22.707Z,99364.50
2022-12-16T10:52:09.233Z,99365.28
2022-12-16T10:54:59.293Z,99351.53
2022-12-16T10:58:01.719Z,99345.37
2022-12-16T11:01:06.827Z,99352.31
2022-12-16T11:03:54.467Z,99358.16
2022-12-16T11:06:56.822Z,99338.56
2022-12-16T11:09:46.144Z,99330.81
2022-12-16T11:12:41.979Z,99344.63
2022-12-16T11:15:49.464Z,99349.72
2022-12-16T11:18:35.615Z,99345.44
2022-12-16T11:21:31.421Z,99340.13
2022-12-16T11:24:29.514Z,99340.81
2022-12-16T11:27:16.295Z,99346.94
2022-12-16T11:30:20.431Z,99355.34
2022-12-16T11:33:07.616Z,99371.97
2022-12-16T11:35:56.864Z,99377.84
2022-12-16T11:38:47.156Z,99380.16
2022-12-16T11:41:44.168Z,99372.31
2022-12-16T11:44:34.927Z,99381.88
2022-12-16T11:47:19.980Z,99396.94
2022-12-16T11:50:07.083Z,99398.47
2022-12-16T11:52:52.134Z,99404.75
2022-12-16T11:59:15.562Z,99405.75
2022-12-16T12:02:03.814Z,99412.03
2022-12-16T12:04:52.699Z,99407.78
2022-12-16T12:07:44.285Z,99398.00
2022-12-16T12:10:31.865Z,99401.69
2022-12-16T12:13:25.596Z,99412.91
2022-12-16T12:16:19.858Z,99416.94
2022-12-16T12:19:10.342Z,99430.25
2022-12-16T12:22:05.750Z,99444.25
2022-12-16T12:25:17.120Z,99436.19
2022-12-16T12:28:09.762Z,99426.09
2022-12-16T12:34:34.091Z,99413.94
2022-12-16T12:37:42.057Z,99412.28
2022-12-16T12:40:42.885Z,99400.22
2022-12-16T12:43:42.443Z,99419.31
2022-12-16T12:46:39.385Z,99408.00
2022-12-16T12:49:35.214Z,99434.00
2022-12-16T12:52:28.682Z,99457.50
2022-12-16T12:55:23.251Z,99455.78
2022-12-16T12:58:13.006Z,99455.78
2022-12-16T13:01:05.343Z,99448.75
2022-12-16T13:03:52.613Z,99438.41
2022-12-16T13:06:38.733Z,99443.56
2022-12-16T13:09:41.612Z,99453.19
2022-12-16T13:12:26.988Z,99459.22
2022-12-16T13:15:23.668Z,99471.22
2022-12-16T13:18:18.165Z,99483.56
2022-12-16T13:21:04.423Z,99493.13
2022-12-16T13:23:51.649Z,99480.91
2022-12-16T13:26:38.767Z,99482.72
2022-12-16T13:29:24.407Z,99476.59
2022-12-16T13:32:19.069Z,99477.47
2022-12-16T13:35:04.114Z,99467.94
2022-12-16T13:37:49.758Z,99484.47
2022-12-16T13:40:39.467Z,99483.53
2022-12-16T13:43:38.478Z,99494.00
2022-12-16T13:46:24.168Z,99513.97
2022-12-16T13:49:09.234Z,99507.91
2022-12-16T13:51:57.416Z,99527.00
2022-12-16T13:54:48.094Z,99527.03
2022-12-16T13:57:38.281Z,99531.41
2022-12-16T14:00:25.031Z,99530.50
2022-12-16T14:03:11.236Z,99512.19
2022-12-16T14:06:03.151Z,99511.31
2022-12-16T14:08:52.797Z,99531.34
2022-12-16T14:11:41.707Z,99537.47
2022-12-16T14:14:27.166Z,99538.28
2022-12-16T14:17:14.485Z,99533.91
2022-12-16T14:20:05.585Z,99533.09
2022-12-16T14:23:09.307Z,99539.19
2022-12-16T14:25:54.829Z,99580.03
2022-12-16T14:28:52.583Z,99576.56
2022-12-16T14:31:52.752Z,99587.84
2022-12-16T14:34:44.898Z,99603.53
2022-12-16T14:37:38.817Z,99609.59
2022-12-16T14:40:36.641Z,99618.22
2022-12-16T14:43:22.505Z,99628.72
2022-12-16T14:46:08.665Z,99642.66
2022-12-16T14:48:56.620Z,99631.28
2022-12-16T14:51:44.131Z,99614.78
2022-12-16T14:54:46.737Z,99617.38
2022-12-16T14:57:34.219Z,99628.50
2022-12-16T15:00:20.744Z,99626.00
2022-12-16T15:03:12.384Z,99622.50
2022-12-16T15:05:59.205Z,99617.06
2022-12-16T15:09:04.472Z,99611.81
2022-12-16T15:11:49.738Z,99610.22
2022-12-16T15:14:40.353Z,99612.75
2022-12-16T15:17:30.117Z,99613.78
2022-12-16T15:20:15.226Z,99617.94
2022-12-16T15:23:10.656Z,99617.91
2022-12-16T15:26:00.598Z,99612.00
2022-12-16T15:29:04.267Z,99614.56
2022-12-16T15:31:51.906Z,99612.41
2022-12-16T15:34:48.427Z,99620.56
2022-12-16T15:37:44.890Z,99632.84
2022-12-16T15:40:46.916Z,99639.88
2022-12-16T15:43:41.073Z,99644.25
2022-12-16T15:46:34.784Z,99640.81
2022-12-16T15:49:20.300Z,99650.91
2022-12-16T15:52:06.739Z,99662.94
2022-12-16T15:54:52.587Z,99662.25
2022-12-16T15:57:48.509Z,99665.22
2022-12-16T16:00:38.772Z,99656.91
2022-12-16T16:03:26.627Z,99650.87
2022-12-16T16:06:12.163Z,99655.12
2022-12-16T16:08:57.381Z,99657.56
2022-12-16T16:11:42.528Z,99665.31
2022-12-16T16:14:27.688Z,99676.78
2022-12-16T16:17:12.884Z,99688.63
2022-12-16T16:20:03.194Z,99694.97
2022-12-16T16:22:50.647Z,99687.31
2022-12-16T16:25:35.763Z,99699.16
2022-12-16T16:28:21.309Z,99708.91
2022-12-16T16:31:06.540Z,99698.13
2022-12-16T16:33:51.642Z,99685.84
2022-12-16T16:36:38.028Z,99675.56
2022-12-16T16:39:22.999Z,99688.72
2022-12-16T16:42:08.118Z,99688.34
2022-12-16T16:44:53.323Z,99686.25
2022-12-16T16:47:38.755Z,99705.06
2022-12-16T16:50:25.298Z,99711.44
2022-12-16T16:53:12.036Z,99711.59
2022-12-16T16:55:57.521Z,99697.97
2022-12-16T16:58:45.396Z,99711.66
2022-12-16T17:01:37.215Z,99709.44
2022-12-16T17:04:25.886Z,99700.31
2022-12-16T17:07:11.047Z,99731.06
2022-12-16T17:09:56.313Z,99717.97
2022-12-16T17:12:42.848Z,99704.56
2022-12-16T17:15:43.895Z,99710.38
2022-12-16T17:18:29.047Z,99726.09
2022-12-16T17:21:14.169Z,99745.12
2022-12-16T17:24:02.579Z,99748.41
2022-12-16T17:26:48.433Z,99749.13
2022-12-16T17:29:53.752Z,99745.97
2022-12-16T17:32:44.122Z,99747.72
2022-12-16T17:35:32.663Z,99759.00
2022-12-16T17:38:17.946Z,99747.06
2022-12-16T17:41:09.744Z,99749.16
2022-12-16T17:43:57.163Z,99754.22
2022-12-16T17:46:45.613Z,99761.41
2022-12-16T17:49:30.995Z,99769.53
2022-12-16T17:52:15.884Z,99775.91
2022-12-16T17:55:02.668Z,99772.78
2022-12-16T17:57:47.807Z,99774.91
2022-12-16T18:00:33.607Z,99785.13
2022-12-16T18:03:19.564Z,99794.06
2022-12-16T18:06:06.766Z,99788.37
2022-12-16T18:08:51.792Z,99793.56
2022-12-16T18:11:38.852Z,99798.59
2022-12-16T18:14:24.816Z,99802.37
2022-12-16T18:17:10.108Z,99807.88
2022-12-16T18:19:55.273Z,99809.16
2022-12-16T18:22:40.594Z,99803.72
2022-12-16T18:25:26.336Z,99819.81
2022-12-16T18:28:11.485Z,99824.41
2022-12-16T18:30:56.766Z,99826.09
2022-12-16T18:33:42.047Z,99826.06
2022-12-16T18:36:27.274Z,99827.25
2022-12-16T18:39:12.692Z,99828.00
2022-12-16T18:42:01.753Z,99829.75
2022-12-16T18:44:47.530Z,99826.50
2022-12-16T18:47:32.601Z,99831.63
2022-12-16T18:50:20.101Z,99826.84
2022-12-16T18:53:09.378Z,99814.81
2022-12-16T18:55:54.894Z,99817.31
2022-12-16T18:58:51.229Z,99813.25
2022-12-16T19:01:37.861Z,99826.25
2022-12-16T19:04:23.532Z,99838.00
2022-12-16T19:07:09.052Z,99832.00
2022-12-16T19:10:14.594Z,99817.69
2022-12-16T19:13:06.007Z,99841.75
2022-12-16T19:15:51.613Z,99849.97
2022-12-16T19:18:37.438Z,99856.06
2022-12-16T19:21:24.091Z,99857.28
2022-12-16T19:24:15.993Z,99848.31
2022-12-16T19:27:01.703Z,99862.13
2022-12-16T19:29:46.909Z,99854.34
2022-12-16T19:32:32.571Z,99856.59
2022-12-16T19:35:17.931Z,99854.78
2022-12-16T19:38:03.132Z,99861.41
2022-12-16T19:40:58.770Z,99871.47
2022-12-16T19:43:43.993Z,99866.38
2022-12-16T19:46:29.234Z,99853.81
2022-12-16T19:49:14.591Z,99858.38
2022-12-16T19:52:00.044Z,99863.44
2022-12-16T19:54:45.433Z,99873.47
2022-12-16T19:57:30.607Z,99875.59
2022-12-16T20:00:15.980Z,99881.91
2022-12-16T20:03:01.264Z,99887.97
2022-12-16T20:05:46.803Z,99887.19
2022-12-16T20:08:33.159Z,99888.22
2022-12-16T20:11:23.402Z,99886.94
2022-12-16T20:14:10.987Z,99899.16
2022-12-16T20:16:56.771Z,99915.16
2022-12-16T20:19:42.097Z,99914.44
2022-12-16T20:22:27.730Z,99924.22
2022-12-16T20:25:12.922Z,99930.22
2022-12-16T20:27:58.036Z,99918.78
2022-12-16T20:30:43.848Z,99920.75
2022-12-16T20:33:33.706Z,99933.91
2022-12-16T20:36:20.486Z,99936.56
2022-12-16T20:39:08.135Z,99938.44
2022-12-16T20:44:59.429Z,99943.09
2022-12-16T20:47:44.559Z,99950.13
2022-12-16T20:50:43.476Z,99942.09
2022-12-16T20:53:28.625Z,99930.75
2022-12-16T20:56:14.058Z,99933.44
2022-12-16T20:58:59.283Z,99936.66
2022-12-16T21:02:01.289Z,99933.22
2022-12-16T21:04:51.090Z,99930.75
2022-12-16T21:07:36.890Z,99929.19
2022-12-16T21:10:32.515Z,99908.38
2022-12-16T21:13:24.473Z,99906.56
2022-12-16T21:16:09.602Z,99909.97
2022-12-16T21:18:57.239Z,99931.78
2022-12-16T21:21:50.268Z,99939.00
2022-12-16T21:24:35.475Z,99955.19
2022-12-16T21:27:21.792Z,99941.19
2022-12-16T21:30:07.009Z,99937.91
2022-12-16T21:32:52.206Z,99937.38
2022-12-16T21:35:38.921Z,99947.34
2022-12-16T21:38:32.986Z,99964.75
2022-12-16T21:41:18.225Z,99969.19
2022-12-16T21:44:03.374Z,99963.28
2022-12-16T21:46:48.741Z,99971.28
2022-12-16T21:49:33.838Z,99970.97
2022-12-16T21:52:18.980Z,99980.06
2022-12-16T21:55:04.194Z,100000.78
2022-12-16T21:57:49.496Z,100001.00
2022-12-16T22:00:35.333Z,100003.59
2022-12-16T22:03:20.409Z,100009.47
2022-12-16T22:06:06.765Z,100014.75
2022-12-16T22:08:52.032Z,100013.81
2022-12-16T22:11:37.056Z,100023.34
2022-12-16T22:14:22.177Z,100006.09
2022-12-16T22:17:07.288Z,100004.53
2022-12-16T22:19:56.221Z,100011.78
2022-12-16T22:22:41.924Z,100011.34
2022-12-16T22:25:30.104Z,100018.59
2022-12-16T22:28:15.217Z,100023.78
2022-12-16T22:31:00.579Z,100015.41
2022-12-16T22:33:45.745Z,99998.59
2022-12-16T22:36:32.507Z,100006.56
2022-12-16T22:39:17.606Z,99996.72
2022-12-16T22:42:02.650Z,100016.50
2022-12-16T22:44:48.049Z,100007.16
2022-12-16T22:47:33.370Z,100021.53
2022-12-16T22:50:18.703Z,100028.75
2022-12-16T22:53:04.390Z,100026.38
2022-12-16T22:55:49.526Z,100020.44
2022-12-16T22:58:41.111Z,100018.66
2022-12-16T23:01:26.605Z,100022.03
2022-12-16T23:04:12.375Z,100021.62
2022-12-16T23:06:57.520Z,100016.31
2022-12-16T23:09:42.792Z,100027.28
2022-12-16T23:12:27.919Z,100020.63
2022-12-16T23:15:13.968Z,100030.63
2022-12-16T23:17:59.086Z,100035.72
2022-12-16T23:20:46.495Z,100039.53
2022-12-16T23:23:31.842Z,100030.41
2022-12-16T23:26:17.959Z,100028.66
2022-12-16T23:29:03.206Z,100013.72
2022-12-16T23:31:48.326Z,100020.91
2022-12-16T23:34:33.702Z,100017.00
2022-12-16T23:37:18.737Z,100015.06
2022-12-16T23:40:04.081Z,100014.63
2022-12-16T23:42:49.174Z,100020.56
2022-12-16T23:45:34.672Z,100014.31
2022-12-16T23:48:24.548Z,99994.56
2022-12-16T23:51:10.186Z,99989.91
2022-12-16T23:53:56.527Z,100010.91
2022-12-16T23:56:42.314Z,100015.66
2022-12-16T23:59:27.703Z,100008.59
